createdAt,value
2022-11-25T00:01:43.696Z,9.43
2022-11-25T00:03:48.934Z,15.70
2022-11-25T00:05:51.620Z,6.72
2022-11-25T00:07:54.431Z,12.48
2022-11-25T00:09:57.276Z,9.07
2022-11-25T00:12:00.107Z,9.07
2022-11-25T00:14:02.849Z,12.55
2022-11-25T00:16:07.359Z,8.48
2022-11-25T00:18:10.209Z,9.68
2022-11-25T00:20:15.733Z,10.13
2022-11-25T00:22:18.600Z,8.15
2022-11-25T00:24:21.308Z,10.15
2022-11-25T00:26:25.390Z,6.28
2022-11-25T00:28:29.062Z,13.02
2022-11-25T00:30:31.747Z,11.52
2022-11-25T00:32:34.454Z,9.50
2022-11-25T00:34:37.296Z,9.55
2022-11-25T00:36:41.844Z,9.27
2022-11-25T00:38:45.272Z,8.18
2022-11-25T00:41:07.955Z,9.13
2022-11-25T00:43:28.835Z,7.97
2022-11-25T00:45:30.607Z,10.52
2022-11-25T00:47:33.388Z,12.20
2022-11-25T00:49:36.616Z,8.45
2022-11-25T00:51:40.979Z,7.93
2022-11-25T00:53:43.806Z,10.10
2022-11-25T00:56:04.146Z,11.60
2022-11-25T00:58:06.888Z,6.43
2022-11-25T01:00:12.624Z,9.43
2022-11-25T01:02:17.225Z,9.57
2022-11-25T01:04:20.105Z,8.27
2022-11-25T01:06:23.817Z,9.15
2022-11-25T01:08:27.950Z,10.48
2022-11-25T01:10:30.694Z,12.38
2022-11-25T01:12:33.406Z,11.70
2022-11-25T01:14:36.610Z,10.68
2022-11-25T01:16:39.577Z,9.52
2022-11-25T01:18:42.571Z,8.73
2022-11-25T01:20:45.372Z,10.50
2022-11-25T01:22:48.159Z,12.63
2022-11-25T01:24:52.298Z,10.15
2022-11-25T01:26:56.067Z,10.07
2022-11-25T01:29:00.979Z,8.43
2022-11-25T01:31:05.160Z,9.13
2022-11-25T01:33:07.887Z,8.90
2022-11-25T01:35:11.401Z,11.52
2022-11-25T01:37:14.132Z,8.40
2022-11-25T01:39:19.425Z,9.15
2022-11-25T01:41:25.577Z,10.27
2022-11-25T01:43:29.578Z,11.18
2022-11-25T01:45:37.572Z,11.65
2022-11-25T01:47:40.277Z,11.85
2022-11-25T01:49:47.386Z,13.55
2022-11-25T01:51:55.096Z,9.48
2022-11-25T01:54:02.226Z,8.77
2022-11-25T01:56:05.430Z,14.35
2022-11-25T01:58:12.625Z,16.23
2022-11-25T02:00:16.688Z,13.48
2022-11-25T02:02:21.657Z,12.23
2022-11-25T02:04:29.256Z,12.57
2022-11-25T02:06:39.885Z,12.13
2022-11-25T02:08:46.675Z,12.55
2022-11-25T02:10:49.659Z,11.40
2022-11-25T02:12:53.537Z,12.60
2022-11-25T02:14:59.796Z,11.18
2022-11-25T02:17:03.098Z,11.30
2022-11-25T02:19:08.251Z,13.05
2022-11-25T02:21:11.107Z,12.57
2022-11-25T02:23:18.904Z,12.02
2022-11-25T02:25:25.222Z,14.07
2022-11-25T02:27:28.686Z,11.02
2022-11-25T02:29:31.507Z,11.20
2022-11-25T02:31:34.300Z,9.45
2022-11-25T02:33:37.158Z,11.25
2022-11-25T02:35:41.989Z,13.20
2022-11-25T02:37:44.777Z,11.10
2022-11-25T02:39:48.803Z,10.55
2022-11-25T02:41:56.375Z,13.10
2022-11-25T02:43:59.406Z,11.98
2022-11-25T02:46:05.639Z,11.93
2022-11-25T02:48:09.859Z,17.92
2022-11-25T02:50:13.899Z,10.60
2022-11-25T02:52:16.654Z,13.00
2022-11-25T02:54:19.454Z,14.98
2022-11-25T02:56:25.241Z,11.10
2022-11-25T02:58:29.711Z,11.13
2022-11-25T03:00:32.394Z,13.70
2022-11-25T03:02:35.230Z,11.55
2022-11-25T03:04:38.899Z,9.35
2022-11-25T03:06:41.815Z,12.70
2022-11-25T03:08:44.580Z,12.52
2022-11-25T03:10:47.327Z,9.23
2022-11-25T03:12:50.154Z,9.90
2022-11-25T03:14:54.276Z,11.10
2022-11-25T03:16:57.068Z,11.52
2022-11-25T03:18:59.831Z,11.05
2022-11-25T03:21:02.824Z,12.52
2022-11-25T03:23:06.639Z,14.13
2022-11-25T03:25:10.332Z,12.38
2022-11-25T03:27:13.081Z,10.52
2022-11-25T03:29:16.076Z,12.35
2022-11-25T03:31:20.484Z,14.68
2022-11-25T03:33:23.265Z,12.43
2022-11-25T03:35:25.930Z,12.05
2022-11-25T03:37:28.883Z,15.40
2022-11-25T03:39:31.706Z,13.20
2022-11-25T03:41:34.645Z,14.40
2022-11-25T03:43:37.374Z,12.75
2022-11-25T03:45:40.230Z,11.90
2022-11-25T03:47:45.142Z,12.85
2022-11-25T03:49:48.116Z,12.23
2022-11-25T03:51:50.879Z,11.23
2022-11-25T03:53:53.792Z,15.50
2022-11-25T03:55:56.607Z,14.13
2022-11-25T03:57:59.299Z,14.13
2022-11-25T04:00:02.208Z,12.25
2022-11-25T04:02:05.217Z,15.60
2022-11-25T04:04:09.342Z,16.17
2022-11-25T04:06:12.173Z,14.30
2022-11-25T04:08:14.967Z,17.52
2022-11-25T04:10:17.860Z,16.88
2022-11-25T04:12:38.257Z,13.45
2022-11-25T04:14:40.979Z,15.77
2022-11-25T04:16:43.763Z,14.30
2022-11-25T04:18:46.570Z,15.38
2022-11-25T04:20:50.768Z,12.38
2022-11-25T04:22:53.755Z,14.20
2022-11-25T04:24:56.519Z,14.27
2022-11-25T04:26:59.200Z,12.70
2022-11-25T04:29:02.236Z,14.32
2022-11-25T04:31:07.879Z,15.57
2022-11-25T04:33:10.674Z,14.93
2022-11-25T04:35:13.471Z,16.88
2022-11-25T04:37:17.602Z,21.48
2022-11-25T04:39:20.451Z,18.20
2022-11-25T04:41:23.461Z,21.08
2022-11-25T04:43:26.279Z,16.08
2022-11-25T04:45:45.352Z,22.17
2022-11-25T04:47:52.066Z,20.20
2022-11-25T04:49:54.822Z,20.98
2022-11-25T04:51:57.799Z,22.02
2022-11-25T04:54:02.002Z,21.95
2022-11-25T04:56:05.878Z,19.88
2022-11-25T04:58:08.698Z,18.67
2022-11-25T05:00:11.784Z,22.48
2022-11-25T05:02:16.296Z,20.30
2022-11-25T05:04:19.032Z,20.95
2022-11-25T05:06:21.816Z,19.58
2022-11-25T05:08:24.574Z,18.67
2022-11-25T05:10:28.643Z,18.10
2022-11-25T05:12:31.889Z,19.98
2022-11-25T05:14:35.719Z,17.55
2022-11-25T05:16:38.671Z,15.52
2022-11-25T05:18:41.436Z,14.30
2022-11-25T05:20:44.925Z,16.15
2022-11-25T05:22:47.666Z,16.13
2022-11-25T05:24:50.450Z,13.15
2022-11-25T05:26:54.471Z,14.85
2022-11-25T05:28:57.191Z,15.48
2022-11-25T05:30:59.992Z,13.30
2022-11-25T05:33:02.751Z,14.77
2022-11-25T05:35:05.971Z,16.63
2022-11-25T05:37:09.204Z,14.07
2022-11-25T05:39:11.959Z,15.88
2022-11-25T05:41:14.733Z,19.17
2022-11-25T05:43:18.955Z,15.85
2022-11-25T05:45:21.665Z,19.00
2022-11-25T05:47:24.393Z,12.57
2022-11-25T05:49:27.129Z,16.77
2022-11-25T05:51:29.995Z,20.27
2022-11-25T05:53:33.019Z,15.90
2022-11-25T05:55:35.682Z,16.45
2022-11-25T05:57:38.449Z,15.20
2022-11-25T05:59:42.579Z,17.65
2022-11-25T06:01:45.275Z,18.10
2022-11-25T06:03:48.062Z,18.83
2022-11-25T06:05:50.835Z,18.35
2022-11-25T06:07:53.978Z,16.60
2022-11-25T06:10:02.713Z,13.95
2022-11-25T06:12:06.114Z,16.02
2022-11-25T06:14:08.816Z,22.58
2022-11-25T06:16:15.564Z,17.75
2022-11-25T06:18:19.370Z,15.60
2022-11-25T06:20:22.124Z,15.10
2022-11-25T06:22:24.846Z,15.05
2022-11-25T06:24:27.595Z,13.98
2022-11-25T06:26:30.604Z,16.02
2022-11-25T06:28:33.438Z,14.27
2022-11-25T06:30:36.179Z,14.73
2022-11-25T06:32:40.260Z,17.20
2022-11-25T06:34:43.041Z,14.57
2022-11-25T06:36:45.806Z,16.75
2022-11-25T06:38:50.029Z,17.17
2022-11-25T06:40:55.237Z,14.80
2022-11-25T06:43:00.438Z,12.05
2022-11-25T06:45:03.298Z,15.30
2022-11-25T06:47:06.274Z,11.98
2022-11-25T06:49:10.365Z,12.55
2022-11-25T06:51:15.415Z,16.15
2022-11-25T06:53:23.807Z,14.63
2022-11-25T06:55:26.852Z,11.60
2022-11-25T06:57:29.587Z,17.52
2022-11-25T06:59:33.491Z,15.07
2022-11-25T07:01:36.397Z,14.05
2022-11-25T07:03:39.600Z,13.27
2022-11-25T07:05:43.790Z,11.40
2022-11-25T07:07:46.644Z,12.27
2022-11-25T07:09:49.352Z,12.57
2022-11-25T07:11:52.105Z,11.95
2022-11-25T07:13:55.969Z,14.73
2022-11-25T07:16:02.075Z,10.98
2022-11-25T07:18:05.250Z,14.80
2022-11-25T07:20:09.075Z,15.63
2022-11-25T07:22:13.160Z,11.07
2022-11-25T07:24:17.519Z,9.75
2022-11-25T07:26:22.369Z,13.00
2022-11-25T07:28:25.096Z,11.52
2022-11-25T07:32:50.548Z,10.43
2022-11-25T07:34:53.271Z,10.05
2022-11-25T07:36:55.948Z,8.18
2022-11-25T07:39:01.425Z,12.43
2022-11-25T07:41:06.359Z,10.30
2022-11-25T07:43:09.043Z,11.88
2022-11-25T07:45:12.014Z,11.07
2022-11-25T07:47:14.766Z,10.60
2022-11-25T07:49:19.511Z,11.93
2022-11-25T07:51:24.257Z,11.57
2022-11-25T07:53:26.990Z,9.63
2022-11-25T07:55:31.092Z,10.70
2022-11-25T07:57:33.795Z,10.32
2022-11-25T07:59:41.213Z,14.05
2022-11-25T08:01:44.541Z,13.50
2022-11-25T08:03:49.718Z,13.05
2022-11-25T08:05:52.433Z,13.60
2022-11-25T08:07:55.244Z,12.10
2022-11-25T08:09:57.955Z,11.73
2022-11-25T08:12:02.318Z,12.63
2022-11-25T08:14:05.608Z,12.70
2022-11-25T08:16:09.066Z,11.20
2022-11-25T08:18:12.006Z,13.65
2022-11-25T08:20:15.053Z,11.82
2022-11-25T08:22:17.765Z,12.98
2022-11-25T08:24:21.957Z,9.82
2022-11-25T08:26:26.797Z,11.57
2022-11-25T08:28:30.969Z,11.57
2022-11-25T08:30:33.818Z,8.77
2022-11-25T08:32:38.579Z,7.63
2022-11-25T08:34:41.297Z,7.70
2022-11-25T08:36:48.279Z,10.00
2022-11-25T08:38:53.801Z,9.55
2022-11-25T08:40:57.490Z,12.25
2022-11-25T08:43:00.412Z,9.80
2022-11-25T08:45:05.791Z,9.07
2022-11-25T08:47:09.870Z,7.93
2022-11-25T08:49:13.567Z,8.35
2022-11-25T08:51:19.124Z,9.35
2022-11-25T08:53:22.960Z,8.93
2022-11-25T08:55:27.291Z,8.68
2022-11-25T08:57:29.975Z,8.10
2022-11-25T08:59:32.701Z,7.13
2022-11-25T09:01:36.798Z,8.98
2022-11-25T09:03:41.540Z,9.27
2022-11-25T09:05:45.515Z,8.57
2022-11-25T09:07:48.361Z,11.65
2022-11-25T09:09:51.114Z,8.38
2022-11-25T09:11:53.955Z,9.27
2022-11-25T09:13:56.858Z,8.60
2022-11-25T09:16:01.209Z,9.63
2022-11-25T09:18:08.079Z,8.00
2022-11-25T09:22:13.796Z,8.85
2022-11-25T09:24:16.568Z,8.90
2022-11-25T09:26:23.467Z,8.93
2022-11-25T09:28:27.719Z,8.05
2022-11-25T09:30:30.843Z,8.82
2022-11-25T09:32:33.567Z,7.75
2022-11-25T09:34:37.943Z,10.77
2022-11-25T09:36:40.740Z,7.20
2022-11-25T09:38:44.973Z,6.28
2022-11-25T09:40:56.362Z,8.57
2022-11-25T09:43:25.425Z,9.30
2022-11-25T09:45:54.175Z,6.47
2022-11-25T09:48:07.633Z,14.57
2022-11-25T09:50:19.865Z,7.15
2022-11-25T09:52:31.249Z,9.48
2022-11-25T09:54:38.015Z,8.35
2022-11-25T09:58:52.820Z,7.20
2022-11-25T10:00:55.635Z,7.53
2022-11-25T10:03:05.652Z,8.38
2022-11-25T10:05:14.545Z,9.50
2022-11-25T10:07:23.024Z,8.00
2022-11-25T10:09:28.832Z,11.80
2022-11-25T10:11:47.799Z,9.52
2022-11-25T10:13:55.807Z,7.00
2022-11-25T10:16:00.573Z,7.22
2022-11-25T10:18:11.554Z,8.70
2022-11-25T10:20:21.027Z,7.88
2022-11-25T10:22:27.575Z,9.13
2022-11-25T10:24:30.263Z,9.57
2022-11-25T10:26:41.241Z,9.25
2022-11-25T10:28:53.092Z,11.18
2022-11-25T10:31:02.319Z,8.25
2022-11-25T10:33:14.975Z,11.35
2022-11-25T10:35:25.699Z,9.32
2022-11-25T10:37:34.875Z,9.65
2022-11-25T10:39:37.591Z,7.18
2022-11-25T10:41:47.541Z,7.47
2022-11-25T10:43:50.482Z,7.80
2022-11-25T10:46:03.811Z,10.75
2022-11-25T10:48:19.656Z,8.35
2022-11-25T10:50:32.388Z,8.32
2022-11-25T10:52:41.864Z,7.60
2022-11-25T10:54:57.428Z,9.98
2022-11-25T10:57:02.257Z,7.78
2022-11-25T10:59:14.960Z,8.35
2022-11-25T11:01:21.789Z,7.88
2022-11-25T11:03:27.743Z,7.70
2022-11-25T11:05:31.933Z,7.03
2022-11-25T11:07:38.569Z,8.02
2022-11-25T11:11:48.925Z,5.55
2022-11-25T11:13:59.741Z,7.90
2022-11-25T11:16:03.054Z,5.95
2022-11-25T11:18:24.313Z,8.88
2022-11-25T11:20:29.682Z,6.57
2022-11-25T11:22:33.882Z,10.93
2022-11-25T11:24:38.986Z,11.38
2022-11-25T11:26:41.932Z,8.27
2022-11-25T11:28:45.356Z,8.02
2022-11-25T11:30:57.714Z,8.00
2022-11-25T11:33:06.529Z,4.57
2022-11-25T11:35:22.130Z,6.75
2022-11-25T11:37:37.609Z,8.90
2022-11-25T11:40:03.165Z,7.75
2022-11-25T11:42:15.095Z,6.72
2022-11-25T11:44:28.461Z,6.55
2022-11-25T11:46:41.953Z,4.57
2022-11-25T11:48:56.217Z,5.80
2022-11-25T11:51:07.274Z,5.20
2022-11-25T11:53:21.943Z,5.57
2022-11-25T11:55:40.738Z,6.10
2022-11-25T11:57:54.362Z,7.70
2022-11-25T11:59:59.629Z,8.52
2022-11-25T12:02:23.975Z,5.57
2022-11-25T12:04:32.123Z,5.93
2022-11-25T12:06:38.676Z,7.85
2022-11-25T12:08:50.908Z,8.80
2022-11-25T12:10:59.522Z,8.50
2022-11-25T12:13:12.640Z,8.88
2022-11-25T12:15:20.922Z,8.57
2022-11-25T12:17:29.691Z,7.55
2022-11-25T12:19:40.412Z,8.85
2022-11-25T12:21:52.416Z,7.72
2022-11-25T12:24:04.119Z,10.05
2022-11-25T12:26:26.743Z,9.18
2022-11-25T12:28:36.601Z,6.18
2022-11-25T12:30:45.776Z,8.60
2022-11-25T12:32:54.595Z,9.25
2022-11-25T12:35:03.215Z,7.22
2022-11-25T12:37:15.254Z,10.43
2022-11-25T12:39:26.648Z,5.97
2022-11-25T12:41:41.449Z,6.63
2022-11-25T12:43:48.793Z,5.47
2022-11-25T12:46:01.387Z,6.15
2022-11-25T12:50:15.425Z,6.65
2022-11-25T12:52:47.774Z,7.85
2022-11-25T12:55:10.855Z,7.05
2022-11-25T12:57:49.215Z,8.25
2022-11-25T13:00:39.385Z,4.38
2022-11-25T13:03:01.104Z,9.10
2022-11-25T13:05:48.644Z,5.28
2022-11-25T13:08:04.539Z,6.60
2022-11-25T13:10:29.588Z,4.72
2022-11-25T13:12:42.403Z,6.60
2022-11-25T13:15:14.161Z,6.32
2022-11-25T13:17:18.876Z,8.20
2022-11-25T13:19:22.231Z,8.65
2022-11-25T13:21:29.046Z,10.82
2022-11-25T13:23:48.658Z,10.13
2022-11-25T13:26:12.871Z,12.65
2022-11-25T13:28:31.630Z,7.75
2022-11-25T13:30:40.103Z,9.75
2022-11-25T13:32:46.165Z,11.30
2022-11-25T13:34:49.069Z,10.85
2022-11-25T13:36:53.160Z,9.35
2022-11-25T13:39:04.107Z,7.93
2022-11-25T13:41:23.403Z,11.77
2022-11-25T13:43:26.465Z,9.70
2022-11-25T13:45:33.709Z,10.20
2022-11-25T13:47:39.364Z,8.65
2022-11-25T13:49:53.194Z,8.85
2022-11-25T13:52:17.734Z,8.32
2022-11-25T13:56:30.225Z,11.13
2022-11-25T13:58:36.061Z,7.57
2022-11-25T14:01:05.540Z,9.30
2022-11-25T14:03:44.830Z,6.80
2022-11-25T14:06:01.822Z,5.95
2022-11-25T14:08:15.843Z,5.85
2022-11-25T14:10:32.408Z,7.45
2022-11-25T14:12:49.613Z,7.65
2022-11-25T14:15:12.803Z,5.00
2022-11-25T14:17:31.896Z,6.82
2022-11-25T14:20:05.137Z,7.28
2022-11-25T14:22:24.077Z,5.60
2022-11-25T14:24:35.246Z,8.48
2022-11-25T14:26:55.908Z,9.25
2022-11-25T14:29:03.623Z,4.35
2022-11-25T14:31:10.366Z,8.07
2022-11-25T14:35:22.924Z,9.95
2022-11-25T14:37:30.728Z,9.15
2022-11-25T14:39:37.690Z,6.68
2022-11-25T14:41:45.383Z,6.97
2022-11-25T14:43:53.636Z,7.05
2022-11-25T14:46:10.770Z,8.10
2022-11-25T14:48:16.809Z,5.97
2022-11-25T14:50:34.585Z,5.88
2022-11-25T14:54:42.838Z,6.55
2022-11-25T14:56:46.270Z,7.32
2022-11-25T14:58:50.928Z,8.30
2022-11-25T15:01:01.734Z,7.38
2022-11-25T15:03:06.569Z,5.35
2022-11-25T15:05:20.711Z,8.68
2022-11-25T15:07:30.736Z,6.80
2022-11-25T15:09:39.388Z,5.88
2022-11-25T15:11:42.350Z,5.93
2022-11-25T15:13:47.768Z,8.80
2022-11-25T15:15:51.743Z,10.38
2022-11-25T15:17:55.368Z,8.95
2022-11-25T15:20:00.364Z,7.15
2022-11-25T15:22:22.321Z,7.03
2022-11-25T15:24:28.328Z,7.95
2022-11-25T15:26:33.586Z,8.77
2022-11-25T15:28:37.658Z,8.77
2022-11-25T15:30:40.401Z,6.32
2022-11-25T15:32:43.251Z,7.75
2022-11-25T15:34:47.353Z,8.75
2022-11-25T15:36:54.195Z,9.60
2022-11-25T15:39:15.003Z,8.80
2022-11-25T15:41:33.855Z,11.38
2022-11-25T15:43:42.017Z,7.55
2022-11-25T15:45:47.206Z,7.03
2022-11-25T15:47:50.486Z,11.15
2022-11-25T15:50:01.130Z,6.82
2022-11-25T15:52:07.093Z,5.35
2022-11-25T15:54:20.098Z,9.70
2022-11-25T15:56:27.103Z,7.22
2022-11-25T15:58:30.456Z,6.85
2022-11-25T16:00:33.496Z,7.55
2022-11-25T16:02:39.203Z,11.52
2022-11-25T16:04:42.018Z,9.80
2022-11-25T16:06:55.004Z,7.05
2022-11-25T16:09:00.566Z,7.30
2022-11-25T16:11:19.501Z,8.80
2022-11-25T16:13:38.442Z,5.57
2022-11-25T16:15:46.925Z,7.25
2022-11-25T16:17:49.652Z,7.95
2022-11-25T16:19:52.417Z,7.05
2022-11-25T16:22:00.103Z,8.13
2022-11-25T16:24:14.984Z,9.68
2022-11-25T16:26:23.930Z,10.57
2022-11-25T16:28:26.810Z,10.65
2022-11-25T16:30:29.604Z,9.77
2022-11-25T16:32:33.688Z,9.02
2022-11-25T16:34:36.738Z,9.45
2022-11-25T16:36:39.670Z,9.07
2022-11-25T16:38:42.512Z,7.32
2022-11-25T16:40:45.923Z,8.15
2022-11-25T16:42:51.678Z,7.05
2022-11-25T16:44:54.456Z,10.95
2022-11-25T16:46:58.473Z,10.50
2022-11-25T16:49:05.442Z,12.65
2022-11-25T16:51:14.645Z,13.02
2022-11-25T16:53:17.742Z,15.98
2022-11-25T16:55:20.546Z,30.90
2022-11-25T16:57:23.601Z,12.07
2022-11-25T16:59:31.657Z,9.80
2022-11-25T17:01:35.268Z,12.60
2022-11-25T17:03:38.263Z,15.98
2022-11-25T17:05:41.027Z,14.70
2022-11-25T17:07:43.862Z,11.60
2022-11-25T17:09:47.337Z,8.85
2022-11-25T17:11:54.857Z,11.73
2022-11-25T17:14:00.737Z,9.70
2022-11-25T17:16:05.426Z,7.78
2022-11-25T17:18:09.070Z,7.65
2022-11-25T17:20:15.974Z,15.07
2022-11-25T17:22:21.008Z,8.82
2022-11-25T17:24:25.517Z,14.57
2022-11-25T17:26:36.825Z,7.07
2022-11-25T17:28:39.769Z,10.07
2022-11-25T17:30:43.899Z,8.77
2022-11-25T17:32:48.904Z,12.13
2022-11-25T17:34:51.809Z,9.63
2022-11-25T17:36:54.675Z,13.18
2022-11-25T17:38:57.626Z,13.27
2022-11-25T17:41:00.366Z,16.23
2022-11-25T17:43:03.191Z,14.23
2022-11-25T17:45:13.216Z,17.08
2022-11-25T17:47:18.202Z,11.68
2022-11-25T17:49:22.749Z,11.57
2022-11-25T17:51:25.519Z,8.90
2022-11-25T17:53:28.291Z,9.80
2022-11-25T17:55:32.253Z,9.55
2022-11-25T17:57:35.643Z,6.90
2022-11-25T17:59:38.589Z,7.32
2022-11-25T18:01:41.481Z,7.25
2022-11-25T18:03:44.225Z,8.57
2022-11-25T18:05:48.288Z,8.40
2022-11-25T18:07:51.489Z,10.32
2022-11-25T18:09:54.280Z,9.15
2022-11-25T18:12:00.240Z,10.95
2022-11-25T18:14:03.075Z,11.50
2022-11-25T18:16:06.888Z,11.13
2022-11-25T18:18:20.149Z,12.68
2022-11-25T18:20:25.634Z,10.35
2022-11-25T18:22:30.788Z,12.70
2022-11-25T18:24:33.458Z,11.57
2022-11-25T18:26:43.643Z,10.00
2022-11-25T18:28:46.634Z,8.63
2022-11-25T18:30:50.468Z,8.98
2022-11-25T18:32:53.812Z,11.68
2022-11-25T18:34:56.819Z,10.50
2022-11-25T18:36:59.710Z,9.43
2022-11-25T18:39:04.016Z,11.93
2022-11-25T18:41:07.111Z,8.85
2022-11-25T18:43:15.910Z,11.65
2022-11-25T18:45:21.491Z,8.65
2022-11-25T18:47:24.632Z,8.65
2022-11-25T18:49:27.661Z,7.35
2022-11-25T18:51:30.437Z,11.30
2022-11-25T18:53:33.543Z,11.57
2022-11-25T18:55:38.088Z,10.02
2022-11-25T18:57:42.446Z,11.55
2022-11-25T18:59:48.040Z,11.27
2022-11-25T19:01:59.040Z,15.48
2022-11-25T19:04:01.817Z,11.35
2022-11-25T19:06:04.711Z,11.38
2022-11-25T19:08:07.457Z,14.00
2022-11-25T19:10:13.752Z,9.65
2022-11-25T19:12:21.335Z,9.57
2022-11-25T19:14:30.976Z,13.95
2022-11-25T19:16:34.086Z,12.18
2022-11-25T19:18:36.982Z,10.82
2022-11-25T19:20:39.747Z,8.70
2022-11-25T19:22:42.688Z,12.52
2022-11-25T19:24:45.934Z,12.02
2022-11-25T19:26:50.991Z,8.75
2022-11-25T19:29:00.635Z,10.82
2022-11-25T19:31:04.845Z,19.60
2022-11-25T19:33:16.266Z,29.80
2022-11-25T19:35:23.688Z,77.82
2022-11-25T19:37:29.976Z,49.05
2022-11-25T19:39:36.651Z,12.60
2022-11-25T19:41:39.356Z,10.55
2022-11-25T19:43:42.060Z,10.25
2022-11-25T19:45:46.707Z,9.50
2022-11-25T19:47:51.907Z,11.35
2022-11-25T19:49:58.411Z,10.10
2022-11-25T19:52:01.174Z,11.30
2022-11-25T19:54:04.216Z,7.63
2022-11-25T19:56:07.739Z,10.52
2022-11-25T19:58:10.767Z,10.80
2022-11-25T20:00:15.529Z,8.88
2022-11-25T20:02:23.158Z,12.38
2022-11-25T20:04:26.180Z,11.52
2022-11-25T20:06:30.314Z,11.98
2022-11-25T20:08:33.038Z,14.32
2022-11-25T20:10:36.072Z,14.50
2022-11-25T20:12:38.780Z,16.23
2022-11-25T20:14:41.623Z,14.75
2022-11-25T20:16:44.384Z,10.57
2022-11-25T20:18:49.321Z,11.40
2022-11-25T20:20:57.197Z,13.27
2022-11-25T20:23:03.569Z,9.90
2022-11-25T20:25:10.656Z,8.07
2022-11-25T20:27:13.914Z,12.07
2022-11-25T20:29:19.415Z,11.25
2022-11-25T20:31:25.144Z,11.70
2022-11-25T20:33:30.145Z,10.93
2022-11-25T20:35:34.553Z,10.88
2022-11-25T20:37:50.559Z,12.05
2022-11-25T20:39:55.187Z,11.82
2022-11-25T20:41:57.913Z,9.65
2022-11-25T20:44:01.494Z,12.05
2022-11-25T20:46:04.619Z,12.38
2022-11-25T20:48:11.465Z,12.00
2022-11-25T20:52:25.079Z,11.95
2022-11-25T20:54:27.960Z,8.95
2022-11-25T20:56:31.290Z,12.07
2022-11-25T20:58:34.520Z,15.95
2022-11-25T21:00:37.285Z,11.95
2022-11-25T21:02:40.008Z,9.85
2022-11-25T21:04:42.951Z,10.98
2022-11-25T21:06:46.177Z,13.65
2022-11-25T21:08:52.713Z,10.10
2022-11-25T21:10:57.176Z,12.75
2022-11-25T21:12:59.986Z,10.63
2022-11-25T21:15:02.700Z,11.15
2022-11-25T21:17:06.252Z,9.70
2022-11-25T21:19:09.006Z,8.48
2022-11-25T21:21:16.963Z,13.27
2022-11-25T21:23:22.895Z,9.65
2022-11-25T21:25:27.172Z,10.27
2022-11-25T21:27:30.235Z,11.43
2022-11-25T21:29:33.220Z,10.93
2022-11-25T21:31:36.034Z,12.02
2022-11-25T21:33:38.821Z,11.23
2022-11-25T21:35:43.704Z,12.07
2022-11-25T21:37:46.591Z,11.13
2022-11-25T21:39:49.447Z,14.10
2022-11-25T21:41:54.109Z,8.68
2022-11-25T21:43:57.034Z,13.50
2022-11-25T21:46:03.110Z,10.52
2022-11-25T21:48:15.014Z,15.05
2022-11-25T21:50:19.599Z,15.55
2022-11-25T21:52:22.718Z,12.63
2022-11-25T21:54:25.461Z,14.05
2022-11-25T21:56:31.877Z,12.18
2022-11-25T21:58:36.260Z,9.20
2022-11-25T22:00:39.024Z,8.90
2022-11-25T22:02:44.000Z,8.13
2022-11-25T22:04:46.762Z,12.07
2022-11-25T22:06:50.968Z,9.75
2022-11-25T22:08:53.995Z,8.43
2022-11-25T22:10:56.866Z,8.95
2022-11-25T22:12:59.666Z,10.20
2022-11-25T22:15:04.063Z,14.05
2022-11-25T22:17:11.457Z,8.50
2022-11-25T22:19:20.602Z,14.40
2022-11-25T22:21:23.427Z,11.43
2022-11-25T22:23:26.527Z,9.52
2022-11-25T22:25:31.866Z,7.15
2022-11-25T22:27:37.022Z,10.18
2022-11-25T22:29:40.003Z,11.10
2022-11-25T22:31:44.618Z,11.20
2022-11-25T22:33:48.209Z,11.88
2022-11-25T22:35:51.307Z,8.73
2022-11-25T22:37:55.489Z,14.75
2022-11-25T22:39:58.451Z,6.60
2022-11-25T22:42:05.213Z,7.85
2022-11-25T22:46:12.627Z,9.25
2022-11-25T22:48:19.271Z,7.15
2022-11-25T22:50:27.450Z,10.40
2022-11-25T22:52:32.387Z,8.93
2022-11-25T22:54:35.289Z,9.05
2022-11-25T22:56:38.193Z,9.05
2022-11-25T22:58:40.922Z,6.38
2022-11-25T23:00:46.420Z,12.85
2022-11-25T23:02:50.475Z,8.45
2022-11-25T23:04:56.796Z,9.65
2022-11-25T23:06:59.514Z,7.40
2022-11-25T23:09:03.007Z,8.18
2022-11-25T23:11:05.982Z,11.07
2022-11-25T23:13:09.051Z,14.45
2022-11-25T23:15:14.981Z,10.82
2022-11-25T23:17:20.344Z,10.18
2022-11-25T23:19:23.076Z,9.23
2022-11-25T23:21:29.070Z,7.93
2022-11-25T23:23:32.132Z,11.90
2022-11-25T23:25:34.905Z,8.73
2022-11-25T23:27:37.582Z,11.38
2022-11-25T23:29:40.559Z,12.25
2022-11-25T23:31:43.798Z,9.55
2022-11-25T23:33:49.341Z,9.50
2022-11-25T23:35:52.201Z,8.30
2022-11-25T23:37:58.132Z,8.50
2022-11-25T23:40:00.901Z,12.95
2022-11-25T23:42:03.650Z,14.48
2022-11-25T23:44:14.622Z,10.30
2022-11-25T23:46:20.009Z,11.05
2022-11-25T23:48:25.895Z,10.82
2022-11-25T23:50:32.373Z,12.60
2022-11-25T23:52:35.141Z,11.32
2022-11-25T23:54:42.505Z,13.45
2022-11-25T23:56:45.213Z,12.25
2022-11-25T23:58:49.426Z,8.82
